KLM1635 DTTJ-LICR
Flight info
| Callsign | KLM1635 |
|---|---|
| Flight time | 0h 58m |
| Altitude | 29000 |
| Route | TRIFA DCT LIRMI UG362 RALAK P623 DOKIK/N0428F280 DCT ARFOL DCT BERMI |
| Aircraft | A21N/M-SDE2E3FGHIRWXY/LB1 |
Departure
| Time | 2026-04-28 12:30 |
|---|---|
| Airport | Djerba Zarzis International Airport (DTTJ) |
Arrival
| Time | 2026-04-28 13:28 |
|---|---|
| Airport | Reggio Calabria Airport (LICR) |
| Time | Latitude | Longitude | Altitude | Speed | Heading |
|---|---|---|---|---|---|
| 2026-04-28 12:12 | 33.87246 | 10.77388 | 24 ft | 0 kts | 128° |
| 2026-04-28 12:23 | 33.87248 | 10.77385 | 24 ft | 2 kts | 128° |
| 2026-04-28 12:23 | 33.87259 | 10.77367 | 27 ft | 3 kts | 127° |
| 2026-04-28 12:23 | 33.87271 | 10.77348 | 26 ft | 3 kts | 122° |
| 2026-04-28 12:24 | 33.87280 | 10.77327 | 23 ft | 3 kts | 100° |
| 2026-04-28 12:24 | 33.87281 | 10.77311 | 24 ft | 2 kts | 42° |
| 2026-04-28 12:24 | 33.87278 | 10.77307 | 25 ft | 0 kts | 24° |
| 2026-04-28 12:26 | 33.87291 | 10.77309 | 25 ft | 7 kts | 1° |
| 2026-04-28 12:26 | 33.87359 | 10.77242 | 21 ft | 14 kts | 303° |
| 2026-04-28 12:26 | 33.87364 | 10.77178 | 21 ft | 12 kts | 272° |
| 2026-04-28 12:27 | 33.87362 | 10.77082 | 21 ft | 14 kts | 268° |
| 2026-04-28 12:27 | 33.87359 | 10.76932 | 21 ft | 16 kts | 270° |
| 2026-04-28 12:27 | 33.87358 | 10.76819 | 21 ft | 13 kts | 269° |
| 2026-04-28 12:27 | 33.87414 | 10.76739 | 22 ft | 0 kts | 359° |
| 2026-04-28 12:28 | 33.87417 | 10.76739 | 21 ft | 3 kts | 359° |
| 2026-04-28 12:28 | 33.87462 | 10.76736 | 20 ft | 13 kts | 345° |
| 2026-04-28 12:28 | 33.87521 | 10.76740 | 20 ft | 1 kts | 90° |
| 2026-04-28 12:29 | 33.87521 | 10.76743 | 20 ft | 3 kts | 90° |
| 2026-04-28 12:29 | 33.87529 | 10.77011 | 20 ft | 75 kts | 87° |
| 2026-04-28 12:30 | 33.87556 | 10.77975 | 26 ft | 151 kts | 88° |
| 2026-04-28 12:30 | 33.87622 | 10.79298 | 733 ft | 160 kts | 77° |
| 2026-04-28 12:30 | 33.88041 | 10.80532 | 1602 ft | 163 kts | 53° |
| 2026-04-28 12:30 | 33.89009 | 10.81372 | 2026 ft | 187 kts | 21° |
| 2026-04-28 12:31 | 33.90354 | 10.81776 | 2328 ft | 211 kts | 17° |
| 2026-04-28 12:31 | 33.91823 | 10.82191 | 2927 ft | 220 kts | 18° |
| 2026-04-28 12:31 | 33.93191 | 10.83010 | 3617 ft | 221 kts | 44° |
| 2026-04-28 12:31 | 33.94375 | 10.84310 | 4077 ft | 242 kts | 47° |
| 2026-04-28 12:32 | 33.95657 | 10.85768 | 4508 ft | 264 kts | 46° |
| 2026-04-28 12:32 | 33.97017 | 10.87325 | 5241 ft | 273 kts | 46° |
| 2026-04-28 12:32 | 33.98399 | 10.88902 | 5993 ft | 281 kts | 45° |
| 2026-04-28 12:32 | 33.99839 | 10.90540 | 6769 ft | 287 kts | 44° |
| 2026-04-28 12:33 | 34.01301 | 10.92196 | 7602 ft | 291 kts | 44° |
| 2026-04-28 12:33 | 34.02789 | 10.93876 | 8392 ft | 296 kts | 44° |
| 2026-04-28 12:33 | 34.04307 | 10.95593 | 9235 ft | 301 kts | 43° |
| 2026-04-28 12:33 | 34.05844 | 10.97339 | 10023 ft | 307 kts | 43° |
| 2026-04-28 12:34 | 34.07454 | 10.99169 | 10374 ft | 330 kts | 43° |
| 2026-04-28 12:34 | 34.09185 | 11.01134 | 10628 ft | 354 kts | 43° |
| 2026-04-28 12:34 | 34.11019 | 11.03217 | 11047 ft | 368 kts | 43° |
| 2026-04-28 12:34 | 34.12896 | 11.05356 | 11745 ft | 373 kts | 42° |
| 2026-04-28 12:35 | 34.14793 | 11.07521 | 12490 ft | 377 kts | 42° |
| 2026-04-28 12:35 | 34.16710 | 11.09710 | 13220 ft | 381 kts | 41° |
| 2026-04-28 12:35 | 34.18647 | 11.11922 | 13929 ft | 385 kts | 41° |
| 2026-04-28 12:35 | 34.20613 | 11.14156 | 14571 ft | 389 kts | 41° |
| 2026-04-28 12:36 | 34.22597 | 11.16398 | 15224 ft | 392 kts | 40° |
| 2026-04-28 12:36 | 34.24603 | 11.18654 | 15847 ft | 396 kts | 40° |
| 2026-04-28 12:36 | 34.26601 | 11.20902 | 16468 ft | 399 kts | 40° |
| 2026-04-28 12:36 | 34.28639 | 11.23204 | 17101 ft | 402 kts | 40° |
| 2026-04-28 12:37 | 34.30685 | 11.25523 | 17729 ft | 406 kts | 40° |
| 2026-04-28 12:37 | 34.32753 | 11.27874 | 18336 ft | 409 kts | 40° |
| 2026-04-28 12:37 | 34.34825 | 11.30237 | 18853 ft | 412 kts | 40° |
| 2026-04-28 12:37 | 34.36917 | 11.32626 | 19355 ft | 415 kts | 39° |
| 2026-04-28 12:38 | 34.39037 | 11.35031 | 19870 ft | 418 kts | 39° |
| 2026-04-28 12:38 | 34.41178 | 11.37436 | 20373 ft | 421 kts | 39° |
| 2026-04-28 12:38 | 34.43339 | 11.39855 | 20864 ft | 425 kts | 39° |
| 2026-04-28 12:38 | 34.45517 | 11.42294 | 21351 ft | 428 kts | 38° |
| 2026-04-28 12:39 | 34.47717 | 11.44761 | 21815 ft | 432 kts | 39° |
| 2026-04-28 12:39 | 34.49928 | 11.47242 | 22269 ft | 436 kts | 39° |
| 2026-04-28 12:39 | 34.52102 | 11.49831 | 22728 ft | 442 kts | 45° |
| 2026-04-28 12:39 | 34.53981 | 11.52829 | 23178 ft | 449 kts | 52° |
| 2026-04-28 12:40 | 34.55718 | 11.55934 | 23598 ft | 452 kts | 52° |
| 2026-04-28 12:40 | 34.57493 | 11.59103 | 23960 ft | 456 kts | 52° |
| 2026-04-28 12:40 | 34.59285 | 11.62299 | 24292 ft | 460 kts | 52° |
| 2026-04-28 12:40 | 34.61097 | 11.65524 | 24603 ft | 464 kts | 52° |
| 2026-04-28 12:41 | 34.62926 | 11.68777 | 24906 ft | 469 kts | 52° |
| 2026-04-28 12:41 | 34.64771 | 11.72061 | 25212 ft | 473 kts | 51° |
| 2026-04-28 12:41 | 34.66628 | 11.75377 | 25517 ft | 477 kts | 52° |
| 2026-04-28 12:41 | 34.68500 | 11.78723 | 25852 ft | 480 kts | 51° |
| 2026-04-28 12:42 | 34.70382 | 11.82091 | 26199 ft | 483 kts | 51° |
| 2026-04-28 12:42 | 34.72276 | 11.85481 | 26520 ft | 486 kts | 51° |
| 2026-04-28 12:42 | 34.74186 | 11.88906 | 26828 ft | 490 kts | 51° |
| 2026-04-28 12:42 | 34.76105 | 11.92350 | 27134 ft | 494 kts | 51° |
| 2026-04-28 12:43 | 34.78043 | 11.95829 | 27436 ft | 497 kts | 51° |
| 2026-04-28 12:43 | 34.79967 | 11.99288 | 27724 ft | 501 kts | 51° |
| 2026-04-28 12:43 | 34.81923 | 12.02812 | 27997 ft | 504 kts | 51° |
| 2026-04-28 12:43 | 34.83892 | 12.06361 | 28273 ft | 507 kts | 51° |
| 2026-04-28 12:44 | 34.85869 | 12.09929 | 28586 ft | 510 kts | 51° |
| 2026-04-28 12:44 | 34.87857 | 12.13518 | 28862 ft | 513 kts | 51° |
| 2026-04-28 12:44 | 34.89862 | 12.17135 | 29139 ft | 515 kts | 51° |
| 2026-04-28 12:44 | 34.91872 | 12.20763 | 29428 ft | 518 kts | 51° |
| 2026-04-28 12:45 | 34.93888 | 12.24411 | 29714 ft | 520 kts | 51° |
| 2026-04-28 12:45 | 34.95910 | 12.28076 | 30068 ft | 521 kts | 51° |
| 2026-04-28 12:45 | 34.97930 | 12.31745 | 30379 ft | 521 kts | 51° |
| 2026-04-28 12:45 | 34.99955 | 12.35429 | 30680 ft | 522 kts | 51° |
| 2026-04-28 12:46 | 35.01951 | 12.39064 | 30971 ft | 523 kts | 51° |
| 2026-04-28 12:46 | 35.03976 | 12.42754 | 31267 ft | 524 kts | 51° |
| 2026-04-28 12:46 | 35.06003 | 12.46447 | 31595 ft | 524 kts | 51° |
| 2026-04-28 12:46 | 35.08029 | 12.50143 | 31913 ft | 524 kts | 51° |
| 2026-04-28 12:47 | 35.10059 | 12.53841 | 32218 ft | 525 kts | 51° |
| 2026-04-28 12:47 | 35.12092 | 12.57548 | 32525 ft | 525 kts | 51° |
| 2026-04-28 12:47 | 35.14125 | 12.61262 | 32841 ft | 526 kts | 52° |
| 2026-04-28 12:47 | 35.16157 | 12.64987 | 33113 ft | 527 kts | 52° |
| 2026-04-28 12:48 | 35.18192 | 12.68719 | 33403 ft | 528 kts | 52° |
| 2026-04-28 12:48 | 35.20229 | 12.72459 | 33700 ft | 529 kts | 52° |
| 2026-04-28 12:48 | 35.22273 | 12.76215 | 33995 ft | 530 kts | 52° |
| 2026-04-28 12:48 | 35.24310 | 12.79971 | 34308 ft | 529 kts | 51° |
| 2026-04-28 12:49 | 35.26335 | 12.83709 | 34657 ft | 527 kts | 51° |
| 2026-04-28 12:49 | 35.28355 | 12.87440 | 35021 ft | 525 kts | 51° |
| 2026-04-28 12:49 | 35.30369 | 12.91162 | 35383 ft | 522 kts | 51° |
| 2026-04-28 12:49 | 35.32370 | 12.94857 | 35742 ft | 519 kts | 51° |
| 2026-04-28 12:50 | 35.34360 | 12.98530 | 35978 ft | 518 kts | 51° |
| 2026-04-28 12:50 | 35.38314 | 13.05831 | 36033 ft | 516 kts | 51° |
| 2026-04-28 12:51 | 35.42275 | 13.13172 | 36037 ft | 516 kts | 51° |
| 2026-04-28 12:51 | 35.46269 | 13.20466 | 36041 ft | 510 kts | 46° |
| 2026-04-28 12:52 | 35.51145 | 13.26556 | 36045 ft | 496 kts | 32° |
| 2026-04-28 12:52 | 35.56411 | 13.32019 | 36053 ft | 495 kts | 32° |
| 2026-04-28 12:53 | 35.61664 | 13.37501 | 36063 ft | 495 kts | 33° |
| 2026-04-28 12:53 | 35.66921 | 13.43000 | 36056 ft | 496 kts | 33° |
| 2026-04-28 12:54 | 35.72174 | 13.48496 | 36058 ft | 496 kts | 33° |
| 2026-04-28 12:54 | 35.77418 | 13.53982 | 36092 ft | 494 kts | 33° |
| 2026-04-28 12:55 | 35.82641 | 13.59470 | 36096 ft | 492 kts | 33° |
| 2026-04-28 12:55 | 35.87829 | 13.64937 | 36089 ft | 490 kts | 33° |
| 2026-04-28 12:56 | 35.93004 | 13.70397 | 36075 ft | 489 kts | 33° |
| 2026-04-28 12:56 | 35.98144 | 13.75819 | 36077 ft | 488 kts | 33° |
| 2026-04-28 12:57 | 36.03290 | 13.81261 | 36079 ft | 487 kts | 33° |
| 2026-04-28 12:57 | 36.08431 | 13.86706 | 36089 ft | 487 kts | 33° |
| 2026-04-28 12:58 | 36.13571 | 13.92159 | 36090 ft | 486 kts | 33° |
| 2026-04-28 12:58 | 36.18697 | 13.97619 | 36107 ft | 485 kts | 33° |
| 2026-04-28 12:59 | 36.23812 | 14.03070 | 36094 ft | 485 kts | 33° |
| 2026-04-28 12:59 | 36.28913 | 14.08520 | 36092 ft | 485 kts | 33° |
| 2026-04-28 13:00 | 36.34016 | 14.13980 | 36078 ft | 485 kts | 33° |
| 2026-04-28 13:00 | 36.39133 | 14.19451 | 36106 ft | 486 kts | 33° |
| 2026-04-28 13:01 | 36.44244 | 14.24933 | 36111 ft | 485 kts | 33° |
| 2026-04-28 13:01 | 36.49308 | 14.30382 | 36105 ft | 484 kts | 33° |
| 2026-04-28 13:02 | 36.54395 | 14.35860 | 36099 ft | 483 kts | 33° |
| 2026-04-28 13:02 | 36.59468 | 14.41334 | 36102 ft | 482 kts | 33° |
| 2026-04-28 13:03 | 36.64528 | 14.46805 | 36102 ft | 480 kts | 33° |
| 2026-04-28 13:03 | 36.69567 | 14.52266 | 36099 ft | 480 kts | 33° |
| 2026-04-28 13:04 | 36.74603 | 14.57726 | 36089 ft | 480 kts | 33° |
| 2026-04-28 13:04 | 36.79639 | 14.63203 | 36083 ft | 480 kts | 34° |
| 2026-04-28 13:05 | 36.84655 | 14.68602 | 36088 ft | 478 kts | 32° |
| 2026-04-28 13:05 | 36.89823 | 14.73812 | 36078 ft | 476 kts | 31° |
| 2026-04-28 13:06 | 36.95031 | 14.78934 | 36081 ft | 476 kts | 31° |
| 2026-04-28 13:06 | 37.00207 | 14.84117 | 36076 ft | 477 kts | 31° |
| 2026-04-28 13:07 | 37.05354 | 14.89350 | 36104 ft | 476 kts | 32° |
| 2026-04-28 13:07 | 37.10490 | 14.94584 | 36100 ft | 475 kts | 31° |
| 2026-04-28 13:08 | 37.15624 | 14.99801 | 36102 ft | 475 kts | 31° |
| 2026-04-28 13:08 | 37.18181 | 15.02401 | 35797 ft | 469 kts | 31° |
| 2026-04-28 13:08 | 37.20665 | 15.04943 | 35435 ft | 451 kts | 31° |
| 2026-04-28 13:08 | 37.23052 | 15.07398 | 34996 ft | 438 kts | 31° |
| 2026-04-28 13:09 | 37.25385 | 15.09792 | 34369 ft | 429 kts | 31° |
| 2026-04-28 13:09 | 37.27689 | 15.12145 | 33640 ft | 424 kts | 31° |
| 2026-04-28 13:09 | 37.29964 | 15.14460 | 32879 ft | 418 kts | 31° |
| 2026-04-28 13:09 | 37.32210 | 15.16743 | 32134 ft | 412 kts | 31° |
| 2026-04-28 13:10 | 37.34424 | 15.18999 | 31417 ft | 407 kts | 31° |
| 2026-04-28 13:10 | 37.36608 | 15.21232 | 30720 ft | 402 kts | 32° |
| 2026-04-28 13:10 | 37.38762 | 15.23440 | 30022 ft | 397 kts | 32° |
| 2026-04-28 13:10 | 37.40889 | 15.25625 | 29227 ft | 392 kts | 32° |
| 2026-04-28 13:11 | 37.42959 | 15.27753 | 28483 ft | 387 kts | 33° |
| 2026-04-28 13:11 | 37.45032 | 15.29883 | 27763 ft | 382 kts | 33° |
| 2026-04-28 13:11 | 37.47076 | 15.31981 | 27068 ft | 376 kts | 33° |
| 2026-04-28 13:11 | 37.49107 | 15.34021 | 26379 ft | 369 kts | 30° |
| 2026-04-28 13:12 | 37.51248 | 15.35726 | 25690 ft | 360 kts | 22° |
| 2026-04-28 13:12 | 37.53490 | 15.37032 | 25030 ft | 351 kts | 15° |
| 2026-04-28 13:12 | 37.55752 | 15.38157 | 24368 ft | 348 kts | 16° |
| 2026-04-28 13:12 | 37.57990 | 15.39281 | 23709 ft | 345 kts | 17° |
| 2026-04-28 13:13 | 37.60200 | 15.40398 | 23103 ft | 337 kts | 17° |
| 2026-04-28 13:13 | 37.62344 | 15.41487 | 22607 ft | 328 kts | 17° |
| 2026-04-28 13:13 | 37.64444 | 15.42554 | 22023 ft | 323 kts | 17° |
| 2026-04-28 13:13 | 37.66523 | 15.43607 | 21412 ft | 320 kts | 17° |
| 2026-04-28 13:14 | 37.68583 | 15.44650 | 20816 ft | 318 kts | 18° |
| 2026-04-28 13:14 | 37.70626 | 15.45683 | 20239 ft | 315 kts | 18° |
| 2026-04-28 13:14 | 37.72652 | 15.46704 | 19681 ft | 312 kts | 18° |
| 2026-04-28 13:14 | 37.74662 | 15.47717 | 19142 ft | 310 kts | 18° |
| 2026-04-28 13:15 | 37.76651 | 15.48722 | 18556 ft | 304 kts | 18° |
| 2026-04-28 13:15 | 37.78604 | 15.49713 | 17629 ft | 301 kts | 19° |
| 2026-04-28 13:15 | 37.80535 | 15.50695 | 16726 ft | 297 kts | 19° |
| 2026-04-28 13:15 | 37.82439 | 15.51663 | 15886 ft | 293 kts | 19° |
| 2026-04-28 13:16 | 37.84321 | 15.52618 | 15063 ft | 289 kts | 19° |
| 2026-04-28 13:16 | 37.86149 | 15.53545 | 14294 ft | 285 kts | 19° |
| 2026-04-28 13:16 | 37.87978 | 15.54475 | 13455 ft | 282 kts | 19° |
| 2026-04-28 13:16 | 37.89787 | 15.55398 | 12596 ft | 278 kts | 19° |
| 2026-04-28 13:17 | 37.91565 | 15.56306 | 11764 ft | 273 kts | 19° |
| 2026-04-28 13:17 | 37.93329 | 15.57208 | 11073 ft | 276 kts | 19° |
| 2026-04-28 13:17 | 37.95092 | 15.58108 | 10919 ft | 272 kts | 19° |
| 2026-04-28 13:17 | 37.96866 | 15.59013 | 10799 ft | 274 kts | 19° |
| 2026-04-28 13:18 | 37.98055 | 15.59620 | 10706 ft | 273 kts | 19° |
| 2026-04-28 13:18 | 37.99812 | 15.60516 | 10582 ft | 272 kts | 19° |
| 2026-04-28 13:18 | 38.01545 | 15.61399 | 10464 ft | 271 kts | 19° |
| 2026-04-28 13:18 | 38.03294 | 15.62291 | 10345 ft | 271 kts | 19° |
| 2026-04-28 13:19 | 38.05040 | 15.63182 | 10225 ft | 270 kts | 19° |
| 2026-04-28 13:19 | 38.06794 | 15.64016 | 10111 ft | 268 kts | 13° |
| 2026-04-28 13:19 | 38.08624 | 15.64445 | 9801 ft | 268 kts | 1° |
| 2026-04-28 13:19 | 38.10486 | 15.64434 | 9423 ft | 267 kts | 355° |
| 2026-04-28 13:20 | 38.12333 | 15.64358 | 9157 ft | 263 kts | 356° |
| 2026-04-28 13:20 | 38.14175 | 15.64289 | 8737 ft | 265 kts | 356° |
| 2026-04-28 13:20 | 38.16014 | 15.64224 | 8386 ft | 264 kts | 356° |
| 2026-04-28 13:20 | 38.17850 | 15.64161 | 8041 ft | 263 kts | 356° |
| 2026-04-28 13:21 | 38.19682 | 15.64096 | 7692 ft | 264 kts | 356° |
| 2026-04-28 13:21 | 38.21515 | 15.64027 | 7327 ft | 264 kts | 356° |
| 2026-04-28 13:21 | 38.23340 | 15.63960 | 6940 ft | 267 kts | 356° |
| 2026-04-28 13:21 | 38.25215 | 15.63894 | 6585 ft | 266 kts | 356° |
| 2026-04-28 13:22 | 38.27064 | 15.63831 | 6224 ft | 265 kts | 356° |
| 2026-04-28 13:22 | 38.28875 | 15.63770 | 5874 ft | 262 kts | 356° |
| 2026-04-28 13:22 | 38.30634 | 15.63401 | 5644 ft | 253 kts | 336° |
| 2026-04-28 13:22 | 38.32055 | 15.62145 | 5471 ft | 249 kts | 309° |
| 2026-04-28 13:23 | 38.32883 | 15.60244 | 5287 ft | 247 kts | 284° |
| 2026-04-28 13:23 | 38.32984 | 15.58087 | 5111 ft | 246 kts | 259° |
| 2026-04-28 13:23 | 38.32349 | 15.56090 | 4932 ft | 245 kts | 233° |
| 2026-04-28 13:23 | 38.31103 | 15.54650 | 4750 ft | 243 kts | 208° |
| 2026-04-28 13:24 | 38.29502 | 15.54031 | 4564 ft | 242 kts | 183° |
| 2026-04-28 13:24 | 38.27856 | 15.54328 | 4390 ft | 241 kts | 160° |
| 2026-04-28 13:24 | 38.26297 | 15.55106 | 4102 ft | 241 kts | 159° |
| 2026-04-28 13:24 | 38.24740 | 15.55874 | 3776 ft | 239 kts | 159° |
| 2026-04-28 13:25 | 38.23192 | 15.56631 | 3467 ft | 238 kts | 159° |
| 2026-04-28 13:25 | 38.21641 | 15.57384 | 3148 ft | 238 kts | 159° |
| 2026-04-28 13:25 | 38.20128 | 15.58134 | 2837 ft | 226 kts | 159° |
| 2026-04-28 13:25 | 38.18717 | 15.58855 | 2552 ft | 212 kts | 158° |
| 2026-04-28 13:26 | 38.17389 | 15.59538 | 2260 ft | 201 kts | 158° |
| 2026-04-28 13:26 | 38.16125 | 15.60188 | 1980 ft | 192 kts | 158° |
| 2026-04-28 13:26 | 38.14911 | 15.60814 | 1706 ft | 185 kts | 158° |
| 2026-04-28 13:26 | 38.13748 | 15.61411 | 1455 ft | 175 kts | 158° |
| 2026-04-28 13:27 | 38.12665 | 15.61966 | 1207 ft | 166 kts | 158° |
| 2026-04-28 13:27 | 38.11625 | 15.62498 | 992 ft | 155 kts | 159° |
| 2026-04-28 13:27 | 38.10693 | 15.62998 | 852 ft | 138 kts | 158° |
| 2026-04-28 13:27 | 38.09830 | 15.63483 | 591 ft | 135 kts | 159° |
| 2026-04-28 13:28 | 38.08983 | 15.63987 | 367 ft | 133 kts | 157° |
| 2026-04-28 13:28 | 38.08157 | 15.64495 | 112 ft | 130 kts | 158° |
| 2026-04-28 13:28 | 38.07402 | 15.64970 | 61 ft | 109 kts | 157° |
| 2026-04-28 13:28 | 38.06910 | 15.65285 | 63 ft | 32 kts | 152° |
| 2026-04-28 13:29 | 38.06730 | 15.65423 | 59 ft | 24 kts | 136° |
| 2026-04-28 13:29 | 38.06697 | 15.65426 | 56 ft | 6 kts | 294° |
| 2026-04-28 13:29 | 38.06804 | 15.65364 | 59 ft | 29 kts | 334° |
| 2026-04-28 13:29 | 38.06986 | 15.65241 | 57 ft | 30 kts | 331° |
| 2026-04-28 13:30 | 38.07180 | 15.65113 | 60 ft | 32 kts | 334° |
| 2026-04-28 13:30 | 38.07299 | 15.65122 | 60 ft | 15 kts | 64° |
| 2026-04-28 13:30 | 38.07347 | 15.65240 | 58 ft | 15 kts | 62° |
| 2026-04-28 13:30 | 38.07368 | 15.65295 | 57 ft | 0 kts | 64° |